createdAt,value
2019-02-20T00:02:25.602Z,5.38
2019-02-20T00:07:31.673Z,5.49
2019-02-20T00:12:37.961Z,5.40
2019-02-20T00:17:43.558Z,5.50
2019-02-20T00:22:49.225Z,5.38
2019-02-20T00:27:54.818Z,5.30
2019-02-20T00:33:00.959Z,5.21
2019-02-20T00:38:06.592Z,5.30
2019-02-20T00:43:12.296Z,5.29
2019-02-20T00:48:39.990Z,5.32
2019-02-20T00:53:52.540Z,5.27
2019-02-20T00:58:58.385Z,5.08
2019-02-20T01:04:05.313Z,5.13
2019-02-20T01:09:09.938Z,4.89
2019-02-20T01:14:15.627Z,4.66
2019-02-20T01:19:21.276Z,4.68
2019-02-20T01:24:27.099Z,4.48
2019-02-20T01:29:33.197Z,4.46
2019-02-20T01:34:38.844Z,4.34
2019-02-20T01:39:44.730Z,4.44
2019-02-20T01:44:50.322Z,4.35
2019-02-20T01:49:56.229Z,4.39
2019-02-20T01:55:01.816Z,4.40
2019-02-20T02:00:08.659Z,4.26
2019-02-20T02:05:15.705Z,4.00
2019-02-20T02:10:21.973Z,3.95
2019-02-20T02:15:27.818Z,3.84
2019-02-20T02:20:33.543Z,4.04
2019-02-20T02:25:39.188Z,4.13
2019-02-20T02:30:45.244Z,4.03
2019-02-20T02:35:50.873Z,3.89
2019-02-20T02:40:56.543Z,3.79
2019-02-20T02:46:02.260Z,3.69
2019-02-20T02:51:08.005Z,3.74
2019-02-20T02:56:13.654Z,4.03
2019-02-20T03:01:19.658Z,4.04
2019-02-20T03:06:25.392Z,4.11
2019-02-20T03:11:31.110Z,4.20
2019-02-20T03:16:36.760Z,4.22
2019-02-20T03:21:42.663Z,4.22
2019-02-20T03:26:48.459Z,4.23
2019-02-20T03:31:54.223Z,4.20
2019-02-20T03:36:59.835Z,3.93
2019-02-20T03:42:05.565Z,4.11
2019-02-20T03:47:11.456Z,4.14
2019-02-20T03:52:18.124Z,4.15
2019-02-20T03:57:23.770Z,4.35
2019-02-20T04:02:29.677Z,4.32
2019-02-20T04:07:35.517Z,4.45
2019-02-20T04:12:41.225Z,4.38
2019-02-20T04:17:46.912Z,4.36
2019-02-20T04:22:52.717Z,4.29
2019-02-20T04:27:58.354Z,4.17
2019-02-20T04:33:04.509Z,4.13
2019-02-20T04:38:10.462Z,4.05
2019-02-20T04:43:16.097Z,3.99
2019-02-20T04:48:21.952Z,4.09
2019-02-20T04:53:27.616Z,4.12
2019-02-20T04:58:33.514Z,4.34
2019-02-20T05:03:39.266Z,4.53
2019-02-20T05:08:44.991Z,4.56
2019-02-20T05:13:50.810Z,4.47
2019-02-20T05:18:56.668Z,4.49
2019-02-20T05:24:02.346Z,4.65
2019-02-20T05:29:07.987Z,4.66
2019-02-20T05:34:13.593Z,4.71
2019-02-20T05:39:19.586Z,4.65
2019-02-20T05:44:25.266Z,4.66
2019-02-20T05:49:30.983Z,4.73
2019-02-20T05:54:36.701Z,4.78
2019-02-20T05:59:43.048Z,4.76
2019-02-20T06:04:49.017Z,4.82
2019-02-20T06:09:54.671Z,4.79
2019-02-20T06:15:00.352Z,4.71
2019-02-20T06:20:06.179Z,4.76
2019-02-20T06:25:11.910Z,4.78
2019-02-20T06:30:17.566Z,4.63
2019-02-20T06:35:23.496Z,4.56
2019-02-20T06:40:29.232Z,4.50
2019-02-20T06:45:35.009Z,4.36
2019-02-20T06:50:40.787Z,4.48
2019-02-20T06:55:46.495Z,4.49
2019-02-20T07:00:52.078Z,4.56
2019-02-20T07:07:19.295Z,4.62
2019-02-20T07:13:10.199Z,4.60
2019-02-20T07:19:11.784Z,4.80
2019-02-20T07:25:13.213Z,5.12
2019-02-20T07:30:19.016Z,5.23
2019-02-20T07:35:24.645Z,5.38
2019-02-20T07:40:30.399Z,5.37
2019-02-20T07:45:36.067Z,5.44
2019-02-20T07:50:42.027Z,5.45
2019-02-20T07:55:47.700Z,5.70
2019-02-20T08:00:53.538Z,5.65
2019-02-20T08:05:59.484Z,5.58
2019-02-20T08:11:05.160Z,5.64
2019-02-20T08:16:10.821Z,5.60
2019-02-20T08:21:16.781Z,5.57
2019-02-20T08:26:22.419Z,5.66
2019-02-20T08:31:28.057Z,5.58
2019-02-20T08:36:34.264Z,5.66
2019-02-20T08:41:39.927Z,5.72
2019-02-20T08:46:45.977Z,5.83
2019-02-20T08:51:51.585Z,5.85
2019-02-20T08:56:57.522Z,5.93
2019-02-20T09:02:03.397Z,5.95
2019-02-20T09:07:08.142Z,6.09
2019-02-20T09:12:14.375Z,6.10
2019-02-20T09:17:20.054Z,6.19
2019-02-20T09:22:25.699Z,6.38
2019-02-20T09:27:31.944Z,6.30
2019-02-20T09:32:37.627Z,6.46
2019-02-20T09:37:43.458Z,6.63
2019-02-20T09:42:49.646Z,6.63
2019-02-20T09:47:55.303Z,6.74
2019-02-20T09:53:01.071Z,6.68
2019-02-20T09:58:07.058Z,6.65
2019-02-20T10:03:13.440Z,6.68
2019-02-20T10:08:19.237Z,6.70
2019-02-20T10:13:24.851Z,6.89
2019-02-20T10:18:30.616Z,6.84
2019-02-20T10:23:36.799Z,6.66
2019-02-20T10:28:43.227Z,6.77
2019-02-20T10:33:49.249Z,6.78
2019-02-20T10:38:54.881Z,6.84
2019-02-20T10:44:00.905Z,6.96
2019-02-20T10:49:06.967Z,7.01
2019-02-20T10:54:12.922Z,7.42
2019-02-20T10:59:18.866Z,7.36
2019-02-20T11:04:25.086Z,7.39
2019-02-20T11:09:31.914Z,7.50
2019-02-20T11:14:38.051Z,8.16
2019-02-20T11:19:43.688Z,8.29
2019-02-20T11:24:49.733Z,7.83
2019-02-20T11:29:56.027Z,7.47
2019-02-20T11:35:02.211Z,7.21
2019-02-20T11:40:08.892Z,7.08
2019-02-20T11:45:15.085Z,6.96
2019-02-20T11:50:21.223Z,7.19
2019-02-20T11:55:27.044Z,7.34
2019-02-20T12:00:32.754Z,7.53
2019-02-20T12:05:38.695Z,7.49
2019-02-20T12:10:45.006Z,7.69
2019-02-20T12:15:50.635Z,7.50
2019-02-20T12:20:56.914Z,7.71
2019-02-20T12:26:02.872Z,8.06
2019-02-20T12:31:08.871Z,8.42
2019-02-20T12:36:14.597Z,8.26
2019-02-20T12:41:20.453Z,8.14
2019-02-20T12:46:26.084Z,7.98
2019-02-20T12:51:32.065Z,7.92
2019-02-20T12:56:43.866Z,7.88
2019-02-20T13:01:45.959Z,7.87
2019-02-20T13:06:59.223Z,7.96
2019-02-20T13:11:59.466Z,8.20
2019-02-20T13:17:06.153Z,8.07
2019-02-20T13:22:11.777Z,7.92
2019-02-20T13:27:22.706Z,7.87
2019-02-20T13:32:25.609Z,7.83
2019-02-20T13:37:31.302Z,7.76
2019-02-20T13:42:37.570Z,7.78
2019-02-20T13:47:43.607Z,7.68
2019-02-20T13:52:52.387Z,7.62
2019-02-20T13:57:57.182Z,7.62
2019-02-20T14:03:03.499Z,7.58
2019-02-20T14:08:09.229Z,7.57
2019-02-20T14:13:14.876Z,7.56
2019-02-20T14:18:20.922Z,7.59
2019-02-20T14:23:26.692Z,7.63
2019-02-20T14:28:32.719Z,7.51
2019-02-20T14:33:38.984Z,7.56
2019-02-20T14:38:45.270Z,7.57
2019-02-20T14:43:50.910Z,7.54
2019-02-20T14:48:56.882Z,7.55
2019-02-20T14:54:02.910Z,7.52
2019-02-20T14:59:08.608Z,7.44
2019-02-20T15:04:14.514Z,7.42
2019-02-20T15:09:21.427Z,7.36
2019-02-20T15:14:27.560Z,7.35
2019-02-20T15:19:33.252Z,7.28
2019-02-20T15:24:38.877Z,7.32
2019-02-20T15:29:45.331Z,7.32
2019-02-20T15:34:51.303Z,7.35
2019-02-20T15:39:57.305Z,7.17
2019-02-20T15:45:03.453Z,7.17
2019-02-20T15:50:10.965Z,7.23
2019-02-20T15:55:17.037Z,7.19
2019-02-20T16:00:24.685Z,7.14
2019-02-20T16:05:31.426Z,7.11
2019-02-20T16:10:37.246Z,7.07
2019-02-20T16:15:43.183Z,6.92
2019-02-20T16:20:49.085Z,6.86
2019-02-20T16:25:55.150Z,6.90
2019-02-20T16:31:00.891Z,6.84
2019-02-20T16:36:06.825Z,6.84
2019-02-20T16:41:13.101Z,6.73
2019-02-20T16:46:19.095Z,6.75
2019-02-20T16:51:24.735Z,6.73
2019-02-20T16:56:30.840Z,6.73
2019-02-20T17:01:36.433Z,6.64
2019-02-20T17:06:42.442Z,6.61
2019-02-20T17:11:48.847Z,6.56
2019-02-20T17:16:54.631Z,6.53
2019-02-20T17:22:00.342Z,6.46
2019-02-20T17:27:06.418Z,6.50
2019-02-20T17:32:12.898Z,6.40
2019-02-20T17:37:18.918Z,6.41
2019-02-20T17:42:24.837Z,6.46
2019-02-20T17:47:30.826Z,6.40
2019-02-20T17:52:36.889Z,6.33
2019-02-20T17:57:42.964Z,6.34
2019-02-20T18:02:49.430Z,6.24
2019-02-20T18:07:55.509Z,6.34
2019-02-20T18:13:01.645Z,6.29
2019-02-20T18:18:07.648Z,6.21
2019-02-20T18:23:13.324Z,6.29
2019-02-20T18:28:24.376Z,6.19
2019-02-20T18:33:26.819Z,6.22
2019-02-20T18:38:32.971Z,6.22
2019-02-20T18:43:39.146Z,6.18
2019-02-20T18:48:44.804Z,6.15
2019-02-20T18:53:50.835Z,6.12
2019-02-20T18:58:56.518Z,6.09
2019-02-20T19:04:02.492Z,6.07
2019-02-20T19:09:25.624Z,6.08
2019-02-20T19:15:06.528Z,6.01
2019-02-20T19:21:31.704Z,6.02
2019-02-20T19:27:43.007Z,5.97
2019-02-20T19:33:41.097Z,6.04
2019-02-20T19:39:23.277Z,5.97
2019-02-20T19:45:18.246Z,6.06
2019-02-20T19:51:02.526Z,6.06
2019-02-20T19:56:48.318Z,6.11
2019-02-20T20:03:21.769Z,6.08
2019-02-20T20:09:02.560Z,6.03
2019-02-20T20:14:45.334Z,6.10
2019-02-20T20:20:23.244Z,6.08
2019-02-20T20:26:13.398Z,6.05
2019-02-20T20:32:13.544Z,6.04
2019-02-20T20:38:10.960Z,6.02
2019-02-20T20:44:01.016Z,5.98
2019-02-20T20:50:22.779Z,5.89
2019-02-20T20:56:41.333Z,5.83
2019-02-20T21:02:10.548Z,5.83
2019-02-20T21:08:14.004Z,5.81
2019-02-20T21:14:30.096Z,5.78
2019-02-20T21:20:49.508Z,5.80
2019-02-20T21:26:39.504Z,5.72
2019-02-20T21:32:31.492Z,5.73
2019-02-20T21:38:51.998Z,5.72
2019-02-20T21:44:57.623Z,5.69
2019-02-20T21:51:37.823Z,5.65
2019-02-20T21:57:14.932Z,5.57
2019-02-20T22:03:22.872Z,5.48
2019-02-20T22:09:32.227Z,5.40
2019-02-20T22:15:18.053Z,5.43
2019-02-20T22:21:32.334Z,5.43
2019-02-20T22:27:20.395Z,5.39
2019-02-20T22:33:38.633Z,5.35
2019-02-20T22:39:46.196Z,5.21
2019-02-20T22:46:02.651Z,5.09
2019-02-20T22:51:48.336Z,4.96
2019-02-20T22:57:49.814Z,4.92
2019-02-20T23:03:38.785Z,4.83
2019-02-20T23:09:43.211Z,4.87
2019-02-20T23:15:01.116Z,4.89
2019-02-20T23:20:07.192Z,4.88
2019-02-20T23:25:12.828Z,4.86
2019-02-20T23:30:18.782Z,4.86
2019-02-20T23:35:24.816Z,4.91
2019-02-20T23:40:30.486Z,4.92
2019-02-20T23:45:36.174Z,4.92
2019-02-20T23:50:41.936Z,4.90
2019-02-20T23:55:48.023Z,4.89
